sensor_id;sensor_type;location;lat;lon;timestamp;P1;durP1;ratioP1;P2;durP2;ratioP2
26686;SDS011;14298;50.900;4.648;2023-03-19T00:00:38;0.73;;;0.73;;
26686;SDS011;14298;50.900;4.648;2023-03-19T00:03:06;3.20;;;2.10;;
26686;SDS011;14298;50.900;4.648;2023-03-19T00:05:35;1.47;;;1.27;;
26686;SDS011;14298;50.900;4.648;2023-03-19T00:08:03;1.00;;;1.00;;
26686;SDS011;14298;50.900;4.648;2023-03-19T00:13:20;1.00;;;0.90;;
26686;SDS011;14298;50.900;4.648;2023-03-19T00:15:48;0.90;;;0.90;;
26686;SDS011;14298;50.900;4.648;2023-03-19T00:18:17;0.67;;;0.67;;
26686;SDS011;14298;50.900;4.648;2023-03-19T00:20:45;0.80;;;0.80;;
26686;SDS011;14298;50.900;4.648;2023-03-19T00:23:14;0.60;;;0.60;;
26686;SDS011;14298;50.900;4.648;2023-03-19T00:25:42;1.47;;;0.90;;
26686;SDS011;14298;50.900;4.648;2023-03-19T00:28:11;1.00;;;1.00;;
26686;SDS011;14298;50.900;4.648;2023-03-19T00:30:39;0.63;;;0.63;;
26686;SDS011;14298;50.900;4.648;2023-03-19T00:33:07;2.20;;;1.43;;
26686;SDS011;14298;50.900;4.648;2023-03-19T00:35:37;1.57;;;1.07;;
26686;SDS011;14298;50.900;4.648;2023-03-19T00:38:06;2.23;;;1.10;;
26686;SDS011;14298;50.900;4.648;2023-03-19T00:40:35;0.73;;;0.73;;
26686;SDS011;14298;50.900;4.648;2023-03-19T00:43:04;0.87;;;0.87;;
26686;SDS011;14298;50.900;4.648;2023-03-19T00:45:32;3.13;;;1.03;;
26686;SDS011;14298;50.900;4.648;2023-03-19T00:48:01;1.30;;;1.20;;
26686;SDS011;14298;50.900;4.648;2023-03-19T00:50:29;0.73;;;0.73;;
26686;SDS011;14298;50.900;4.648;2023-03-19T00:52:58;0.90;;;0.90;;
26686;SDS011;14298;50.900;4.648;2023-03-19T00:55:27;0.90;;;0.90;;
26686;SDS011;14298;50.900;4.648;2023-03-19T00:57:55;1.80;;;0.93;;
26686;SDS011;14298;50.900;4.648;2023-03-19T01:00:24;0.70;;;0.70;;
26686;SDS011;14298;50.900;4.648;2023-03-19T01:02:52;0.70;;;0.70;;
26686;SDS011;14298;50.900;4.648;2023-03-19T01:05:20;0.90;;;0.90;;
26686;SDS011;14298;50.900;4.648;2023-03-19T01:07:49;0.57;;;0.57;;
26686;SDS011;14298;50.900;4.648;2023-03-19T01:10:18;1.07;;;0.97;;
26686;SDS011;14298;50.900;4.648;2023-03-19T01:12:47;0.50;;;0.50;;
26686;SDS011;14298;50.900;4.648;2023-03-19T01:15:16;0.57;;;0.57;;
26686;SDS011;14298;50.900;4.648;2023-03-19T01:17:45;0.80;;;0.80;;
26686;SDS011;14298;50.900;4.648;2023-03-19T01:20:13;0.90;;;0.90;;
26686;SDS011;14298;50.900;4.648;2023-03-19T01:22:43;0.60;;;0.60;;
26686;SDS011;14298;50.900;4.648;2023-03-19T01:25:12;0.57;;;0.57;;
26686;SDS011;14298;50.900;4.648;2023-03-19T01:27:41;1.37;;;1.27;;
26686;SDS011;14298;50.900;4.648;2023-03-19T01:30:10;1.90;;;1.00;;
26686;SDS011;14298;50.900;4.648;2023-03-19T01:32:39;0.70;;;0.70;;
26686;SDS011;14298;50.900;4.648;2023-03-19T01:35:07;0.73;;;0.73;;
26686;SDS011;14298;50.900;4.648;2023-03-19T01:37:36;0.40;;;0.40;;
26686;SDS011;14298;50.900;4.648;2023-03-19T01:40:05;0.40;;;0.40;;
26686;SDS011;14298;50.900;4.648;2023-03-19T01:42:49;1.90;;;1.03;;
26686;SDS011;14298;50.900;4.648;2023-03-19T01:45:28;1.03;;;0.80;;
26686;SDS011;14298;50.900;4.648;2023-03-19T01:47:59;0.70;;;0.70;;
26686;SDS011;14298;50.900;4.648;2023-03-19T01:50:35;0.53;;;0.53;;
26686;SDS011;14298;50.900;4.648;2023-03-19T01:53:03;0.83;;;0.83;;
26686;SDS011;14298;50.900;4.648;2023-03-19T01:55:33;0.60;;;0.60;;
26686;SDS011;14298;50.900;4.648;2023-03-19T01:58:01;0.50;;;0.50;;
26686;SDS011;14298;50.900;4.648;2023-03-19T02:00:33;0.73;;;0.73;;
26686;SDS011;14298;50.900;4.648;2023-03-19T02:03:03;0.80;;;0.80;;
26686;SDS011;14298;50.900;4.648;2023-03-19T02:05:32;0.70;;;0.70;;
26686;SDS011;14298;50.900;4.648;2023-03-19T02:08:04;0.60;;;0.60;;
26686;SDS011;14298;50.900;4.648;2023-03-19T02:10:34;1.30;;;0.87;;
26686;SDS011;14298;50.900;4.648;2023-03-19T02:13:03;0.60;;;0.60;;
26686;SDS011;14298;50.900;4.648;2023-03-19T02:18:12;0.80;;;0.80;;
26686;SDS011;14298;50.900;4.648;2023-03-19T02:20:47;1.07;;;0.90;;
26686;SDS011;14298;50.900;4.648;2023-03-19T02:26:25;0.77;;;0.77;;
26686;SDS011;14298;50.900;4.648;2023-03-19T02:28:56;3.87;;;1.10;;
26686;SDS011;14298;50.900;4.648;2023-03-19T02:31:24;0.50;;;0.50;;
26686;SDS011;14298;50.900;4.648;2023-03-19T02:34:00;0.77;;;0.77;;
26686;SDS011;14298;50.900;4.648;2023-03-19T02:36:36;1.03;;;0.60;;
26686;SDS011;14298;50.900;4.648;2023-03-19T02:39:03;0.97;;;0.80;;
26686;SDS011;14298;50.900;4.648;2023-03-19T02:41:34;1.97;;;1.10;;
26686;SDS011;14298;50.900;4.648;2023-03-19T02:44:06;0.60;;;0.53;;
26686;SDS011;14298;50.900;4.648;2023-03-19T02:46:37;1.53;;;1.00;;
26686;SDS011;14298;50.900;4.648;2023-03-19T02:49:05;0.60;;;0.60;;
26686;SDS011;14298;50.900;4.648;2023-03-19T02:51:34;0.97;;;0.97;;
26686;SDS011;14298;50.900;4.648;2023-03-19T02:54:03;0.97;;;0.93;;
26686;SDS011;14298;50.900;4.648;2023-03-19T02:56:31;1.70;;;0.87;;
26686;SDS011;14298;50.900;4.648;2023-03-19T03:01:47;1.40;;;1.23;;
26686;SDS011;14298;50.900;4.648;2023-03-19T03:04:16;1.00;;;1.00;;
26686;SDS011;14298;50.900;4.648;2023-03-19T03:06:45;1.90;;;1.13;;
26686;SDS011;14298;50.900;4.648;2023-03-19T03:09:13;1.03;;;0.80;;
26686;SDS011;14298;50.900;4.648;2023-03-19T03:11:42;1.27;;;1.07;;
26686;SDS011;14298;50.900;4.648;2023-03-19T03:14:11;0.73;;;0.73;;
26686;SDS011;14298;50.900;4.648;2023-03-19T03:16:40;0.43;;;0.43;;
26686;SDS011;14298;50.900;4.648;2023-03-19T03:19:08;0.80;;;0.80;;
26686;SDS011;14298;50.900;4.648;2023-03-19T03:21:37;0.70;;;0.70;;
26686;SDS011;14298;50.900;4.648;2023-03-19T03:24:05;1.13;;;1.13;;
26686;SDS011;14298;50.900;4.648;2023-03-19T03:26:35;1.27;;;1.17;;
26686;SDS011;14298;50.900;4.648;2023-03-19T03:29:04;0.83;;;0.83;;
26686;SDS011;14298;50.900;4.648;2023-03-19T03:31:34;1.33;;;1.00;;
26686;SDS011;14298;50.900;4.648;2023-03-19T03:34:02;0.67;;;0.67;;
26686;SDS011;14298;50.900;4.648;2023-03-19T03:36:31;0.80;;;0.80;;
26686;SDS011;14298;50.900;4.648;2023-03-19T03:38:59;1.73;;;1.50;;
26686;SDS011;14298;50.900;4.648;2023-03-19T03:41:27;1.40;;;0.87;;
26686;SDS011;14298;50.900;4.648;2023-03-19T03:43:56;1.60;;;1.27;;
26686;SDS011;14298;50.900;4.648;2023-03-19T03:46:24;1.77;;;1.57;;
26686;SDS011;14298;50.900;4.648;2023-03-19T03:48:53;0.80;;;0.80;;
26686;SDS011;14298;50.900;4.648;2023-03-19T03:51:24;1.23;;;1.23;;
26686;SDS011;14298;50.900;4.648;2023-03-19T03:53:53;1.37;;;1.27;;
26686;SDS011;14298;50.900;4.648;2023-03-19T03:56:21;1.93;;;1.27;;
26686;SDS011;14298;50.900;4.648;2023-03-19T03:58:49;1.40;;;1.30;;
26686;SDS011;14298;50.900;4.648;2023-03-19T04:01:18;1.40;;;1.30;;
26686;SDS011;14298;50.900;4.648;2023-03-19T04:03:47;1.30;;;1.20;;
26686;SDS011;14298;50.900;4.648;2023-03-19T04:06:16;1.87;;;1.40;;
26686;SDS011;14298;50.900;4.648;2023-03-19T04:08:46;0.90;;;0.87;;
26686;SDS011;14298;50.900;4.648;2023-03-19T04:11:15;1.83;;;1.73;;
26686;SDS011;14298;50.900;4.648;2023-03-19T04:13:43;2.20;;;1.83;;
26686;SDS011;14298;50.900;4.648;2023-03-19T04:16:12;2.77;;;2.57;;
26686;SDS011;14298;50.900;4.648;2023-03-19T04:18:41;2.27;;;2.07;;
26686;SDS011;14298;50.900;4.648;2023-03-19T04:21:09;2.57;;;2.20;;
26686;SDS011;14298;50.900;4.648;2023-03-19T04:23:37;2.40;;;2.20;;
26686;SDS011;14298;50.900;4.648;2023-03-19T04:26:06;2.53;;;2.30;;
26686;SDS011;14298;50.900;4.648;2023-03-19T04:28:34;2.23;;;2.13;;
26686;SDS011;14298;50.900;4.648;2023-03-19T04:31:08;2.47;;;2.27;;
26686;SDS011;14298;50.900;4.648;2023-03-19T04:33:34;2.13;;;2.03;;
26686;SDS011;14298;50.900;4.648;2023-03-19T04:36:03;1.57;;;1.47;;
26686;SDS011;14298;50.900;4.648;2023-03-19T04:38:32;2.33;;;2.13;;
26686;SDS011;14298;50.900;4.648;2023-03-19T04:41:00;2.60;;;2.40;;
26686;SDS011;14298;50.900;4.648;2023-03-19T04:43:29;3.83;;;2.03;;
26686;SDS011;14298;50.900;4.648;2023-03-19T04:45:58;2.37;;;2.17;;
26686;SDS011;14298;50.900;4.648;2023-03-19T04:48:26;2.53;;;2.30;;
26686;SDS011;14298;50.900;4.648;2023-03-19T04:50:55;2.53;;;2.33;;
26686;SDS011;14298;50.900;4.648;2023-03-19T04:53:23;3.43;;;3.13;;
26686;SDS011;14298;50.900;4.648;2023-03-19T04:55:52;1.67;;;1.53;;
26686;SDS011;14298;50.900;4.648;2023-03-19T04:58:20;2.83;;;2.60;;
26686;SDS011;14298;50.900;4.648;2023-03-19T05:00:49;3.03;;;2.37;;
26686;SDS011;14298;50.900;4.648;2023-03-19T05:03:17;2.80;;;2.33;;
26686;SDS011;14298;50.900;4.648;2023-03-19T05:05:47;1.43;;;1.33;;
26686;SDS011;14298;50.900;4.648;2023-03-19T05:08:15;2.20;;;2.00;;
26686;SDS011;14298;50.900;4.648;2023-03-19T05:10:43;2.87;;;2.57;;
26686;SDS011;14298;50.900;4.648;2023-03-19T05:13:12;2.20;;;2.10;;
26686;SDS011;14298;50.900;4.648;2023-03-19T05:15:41;1.83;;;1.73;;
26686;SDS011;14298;50.900;4.648;2023-03-19T05:18:10;2.70;;;2.17;;
26686;SDS011;14298;50.900;4.648;2023-03-19T05:20:39;1.60;;;1.50;;
26686;SDS011;14298;50.900;4.648;2023-03-19T05:23:08;1.50;;;1.17;;
26686;SDS011;14298;50.900;4.648;2023-03-19T05:25:36;5.93;;;2.67;;
26686;SDS011;14298;50.900;4.648;2023-03-19T05:28:05;3.47;;;2.27;;
26686;SDS011;14298;50.900;4.648;2023-03-19T05:30:33;2.73;;;2.53;;
26686;SDS011;14298;50.900;4.648;2023-03-19T05:33:02;2.30;;;1.50;;
26686;SDS011;14298;50.900;4.648;2023-03-19T05:35:31;2.13;;;2.03;;
26686;SDS011;14298;50.900;4.648;2023-03-19T05:38:00;2.43;;;2.23;;
26686;SDS011;14298;50.900;4.648;2023-03-19T05:40:28;2.43;;;2.23;;
26686;SDS011;14298;50.900;4.648;2023-03-19T05:42:57;2.03;;;1.80;;
26686;SDS011;14298;50.900;4.648;2023-03-19T05:45:25;3.23;;;1.73;;
26686;SDS011;14298;50.900;4.648;2023-03-19T05:47:54;1.30;;;1.30;;
26686;SDS011;14298;50.900;4.648;2023-03-19T05:50:22;1.47;;;1.37;;
26686;SDS011;14298;50.900;4.648;2023-03-19T05:52:50;1.70;;;1.60;;
26686;SDS011;14298;50.900;4.648;2023-03-19T05:55:19;1.23;;;1.23;;
26686;SDS011;14298;50.900;4.648;2023-03-19T05:57:47;2.03;;;1.90;;
26686;SDS011;14298;50.900;4.648;2023-03-19T06:00:16;2.73;;;1.77;;
26686;SDS011;14298;50.900;4.648;2023-03-19T06:02:45;2.63;;;1.73;;
26686;SDS011;14298;50.900;4.648;2023-03-19T06:05:13;5.50;;;1.43;;
26686;SDS011;14298;50.900;4.648;2023-03-19T06:07:42;2.63;;;2.03;;
26686;SDS011;14298;50.900;4.648;2023-03-19T06:10:10;2.33;;;1.77;;
26686;SDS011;14298;50.900;4.648;2023-03-19T06:12:39;1.60;;;1.50;;
26686;SDS011;14298;50.900;4.648;2023-03-19T06:15:08;2.13;;;2.03;;
26686;SDS011;14298;50.900;4.648;2023-03-19T06:17:36;2.30;;;1.50;;
26686;SDS011;14298;50.900;4.648;2023-03-19T06:20:05;1.80;;;1.70;;
26686;SDS011;14298;50.900;4.648;2023-03-19T06:22:34;1.90;;;1.80;;
26686;SDS011;14298;50.900;4.648;2023-03-19T06:25:02;1.90;;;1.80;;
26686;SDS011;14298;50.900;4.648;2023-03-19T06:27:30;1.60;;;1.50;;
26686;SDS011;14298;50.900;4.648;2023-03-19T06:29:59;6.23;;;2.10;;
26686;SDS011;14298;50.900;4.648;2023-03-19T06:32:27;1.63;;;1.53;;
26686;SDS011;14298;50.900;4.648;2023-03-19T06:34:55;2.47;;;1.40;;
26686;SDS011;14298;50.900;4.648;2023-03-19T06:37:24;2.10;;;2.00;;
26686;SDS011;14298;50.900;4.648;2023-03-19T06:39:52;1.10;;;1.10;;
26686;SDS011;14298;50.900;4.648;2023-03-19T06:42:21;1.53;;;1.43;;
26686;SDS011;14298;50.900;4.648;2023-03-19T06:44:49;1.33;;;0.90;;
26686;SDS011;14298;50.900;4.648;2023-03-19T06:47:17;2.10;;;2.00;;
26686;SDS011;14298;50.900;4.648;2023-03-19T06:49:46;4.33;;;1.53;;
26686;SDS011;14298;50.900;4.648;2023-03-19T06:52:14;1.20;;;1.20;;
26686;SDS011;14298;50.900;4.648;2023-03-19T06:54:42;1.43;;;1.33;;
26686;SDS011;14298;50.900;4.648;2023-03-19T06:57:11;1.60;;;1.50;;
26686;SDS011;14298;50.900;4.648;2023-03-19T06:59:39;2.03;;;1.80;;
26686;SDS011;14298;50.900;4.648;2023-03-19T07:02:09;1.27;;;1.13;;
26686;SDS011;14298;50.900;4.648;2023-03-19T07:04:38;1.67;;;1.57;;
26686;SDS011;14298;50.900;4.648;2023-03-19T07:07:06;1.53;;;1.30;;
26686;SDS011;14298;50.900;4.648;2023-03-19T07:09:35;2.17;;;1.97;;
26686;SDS011;14298;50.900;4.648;2023-03-19T07:12:03;2.00;;;1.80;;
26686;SDS011;14298;50.900;4.648;2023-03-19T07:14:31;2.23;;;2.03;;
26686;SDS011;14298;50.900;4.648;2023-03-19T07:17:00;2.30;;;1.93;;
26686;SDS011;14298;50.900;4.648;2023-03-19T07:19:28;1.63;;;1.53;;
26686;SDS011;14298;50.900;4.648;2023-03-19T07:21:57;4.90;;;2.37;;
26686;SDS011;14298;50.900;4.648;2023-03-19T07:24:25;2.07;;;1.93;;
26686;SDS011;14298;50.900;4.648;2023-03-19T07:26:53;5.30;;;1.47;;
26686;SDS011;14298;50.900;4.648;2023-03-19T07:29:22;0.90;;;0.90;;
26686;SDS011;14298;50.900;4.648;2023-03-19T07:31:51;1.70;;;1.50;;
26686;SDS011;14298;50.900;4.648;2023-03-19T07:34:19;1.47;;;1.37;;
26686;SDS011;14298;50.900;4.648;2023-03-19T07:36:48;0.93;;;0.93;;
26686;SDS011;14298;50.900;4.648;2023-03-19T07:39:18;1.77;;;1.67;;
26686;SDS011;14298;50.900;4.648;2023-03-19T07:41:47;1.70;;;1.60;;
26686;SDS011;14298;50.900;4.648;2023-03-19T07:44:16;1.53;;;1.43;;
26686;SDS011;14298;50.900;4.648;2023-03-19T07:46:44;1.87;;;1.77;;
26686;SDS011;14298;50.900;4.648;2023-03-19T07:49:12;1.60;;;1.10;;
26686;SDS011;14298;50.900;4.648;2023-03-19T07:51:41;0.93;;;0.93;;
26686;SDS011;14298;50.900;4.648;2023-03-19T07:54:09;1.60;;;1.47;;
26686;SDS011;14298;50.900;4.648;2023-03-19T07:56:38;0.70;;;0.70;;
26686;SDS011;14298;50.900;4.648;2023-03-19T07:59:06;0.73;;;0.73;;
26686;SDS011;14298;50.900;4.648;2023-03-19T08:01:34;1.57;;;1.13;;
26686;SDS011;14298;50.900;4.648;2023-03-19T08:04:03;1.33;;;1.23;;
26686;SDS011;14298;50.900;4.648;2023-03-19T08:06:31;2.40;;;1.73;;
26686;SDS011;14298;50.900;4.648;2023-03-19T08:09:00;1.40;;;1.30;;
26686;SDS011;14298;50.900;4.648;2023-03-19T08:11:28;2.60;;;2.03;;
26686;SDS011;14298;50.900;4.648;2023-03-19T08:13:57;1.83;;;1.50;;
26686;SDS011;14298;50.900;4.648;2023-03-19T08:16:25;1.87;;;1.63;;
26686;SDS011;14298;50.900;4.648;2023-03-19T08:18:54;1.60;;;1.40;;
26686;SDS011;14298;50.900;4.648;2023-03-19T08:21:22;3.17;;;1.50;;
26686;SDS011;14298;50.900;4.648;2023-03-19T08:23:51;7.90;;;1.43;;
26686;SDS011;14298;50.900;4.648;2023-03-19T08:26:19;2.80;;;1.53;;
26686;SDS011;14298;50.900;4.648;2023-03-19T08:28:48;3.37;;;1.77;;
26686;SDS011;14298;50.900;4.648;2023-03-19T08:31:16;3.90;;;1.53;;
26686;SDS011;14298;50.900;4.648;2023-03-19T08:33:44;2.63;;;1.67;;
26686;SDS011;14298;50.900;4.648;2023-03-19T08:36:13;2.57;;;1.70;;
26686;SDS011;14298;50.900;4.648;2023-03-19T08:38:42;1.60;;;1.50;;
26686;SDS011;14298;50.900;4.648;2023-03-19T08:41:10;4.10;;;1.77;;
26686;SDS011;14298;50.900;4.648;2023-03-19T08:43:38;5.90;;;1.27;;
26686;SDS011;14298;50.900;4.648;2023-03-19T08:46:07;2.50;;;1.40;;
26686;SDS011;14298;50.900;4.648;2023-03-19T08:48:36;2.10;;;1.20;;
26686;SDS011;14298;50.900;4.648;2023-03-19T08:51:04;2.03;;;1.03;;
26686;SDS011;14298;50.900;4.648;2023-03-19T08:53:33;2.37;;;1.33;;
26686;SDS011;14298;50.900;4.648;2023-03-19T08:56:03;8.97;;;1.37;;
26686;SDS011;14298;50.900;4.648;2023-03-19T08:58:34;4.73;;;1.20;;
26686;SDS011;14298;50.900;4.648;2023-03-19T09:01:03;2.67;;;1.30;;
26686;SDS011;14298;50.900;4.648;2023-03-19T09:03:34;1.70;;;1.23;;
26686;SDS011;14298;50.900;4.648;2023-03-19T09:06:04;2.77;;;0.97;;
26686;SDS011;14298;50.900;4.648;2023-03-19T09:08:34;5.20;;;1.03;;
26686;SDS011;14298;50.900;4.648;2023-03-19T09:11:03;2.30;;;1.40;;
26686;SDS011;14298;50.900;4.648;2023-03-19T09:13:32;5.40;;;1.33;;
26686;SDS011;14298;50.900;4.648;2023-03-19T09:16:01;1.43;;;1.07;;
26686;SDS011;14298;50.900;4.648;2023-03-19T09:18:30;1.80;;;0.67;;
26686;SDS011;14298;50.900;4.648;2023-03-19T09:20:58;1.60;;;1.00;;
26686;SDS011;14298;50.900;4.648;2023-03-19T09:23:27;3.40;;;1.20;;
26686;SDS011;14298;50.900;4.648;2023-03-19T09:25:56;1.90;;;1.00;;
26686;SDS011;14298;50.900;4.648;2023-03-19T09:28:24;3.77;;;1.03;;
26686;SDS011;14298;50.900;4.648;2023-03-19T09:30:53;0.77;;;0.30;;
26686;SDS011;14298;50.900;4.648;2023-03-19T09:33:21;2.03;;;0.80;;
26686;SDS011;14298;50.900;4.648;2023-03-19T09:35:50;3.23;;;0.97;;
26686;SDS011;14298;50.900;4.648;2023-03-19T09:38:20;1.07;;;0.97;;
26686;SDS011;14298;50.900;4.648;2023-03-19T09:41:02;3.60;;;0.50;;
26686;SDS011;14298;50.900;4.648;2023-03-19T09:46:11;0.60;;;0.60;;
26686;SDS011;14298;50.900;4.648;2023-03-19T09:48:51;1.40;;;0.60;;
26686;SDS011;14298;50.900;4.648;2023-03-19T09:51:24;1.77;;;0.53;;
26686;SDS011;14298;50.900;4.648;2023-03-19T09:53:54;3.37;;;1.00;;
26686;SDS011;14298;50.900;4.648;2023-03-19T09:56:24;4.10;;;0.70;;
26686;SDS011;14298;50.900;4.648;2023-03-19T09:58:53;1.80;;;0.53;;
26686;SDS011;14298;50.900;4.648;2023-03-19T10:01:28;2.07;;;0.97;;
26686;SDS011;14298;50.900;4.648;2023-03-19T10:04:18;0.85;;;0.57;;
26686;SDS011;14298;50.900;4.648;2023-03-19T10:06:58;1.52;;;1.05;;
26686;SDS011;14298;50.900;4.648;2023-03-19T10:12:20;1.03;;;0.63;;
26686;SDS011;14298;50.900;4.648;2023-03-19T10:14:50;0.70;;;0.60;;
26686;SDS011;14298;50.900;4.648;2023-03-19T10:17:35;7.00;;;1.30;;
26686;SDS011;14298;50.900;4.648;2023-03-19T10:20:11;2.83;;;1.13;;
26686;SDS011;14298;50.900;4.648;2023-03-19T10:22:47;4.00;;;0.63;;
26686;SDS011;14298;50.900;4.648;2023-03-19T10:25:23;1.40;;;0.90;;
26686;SDS011;14298;50.900;4.648;2023-03-19T10:27:59;2.53;;;1.17;;
26686;SDS011;14298;50.900;4.648;2023-03-19T10:30:24;1.70;;;0.67;;
26686;SDS011;14298;50.900;4.648;2023-03-19T10:33:04;2.40;;;0.80;;
26686;SDS011;14298;50.900;4.648;2023-03-19T10:35:48;1.37;;;0.70;;
26686;SDS011;14298;50.900;4.648;2023-03-19T10:38:22;2.23;;;0.83;;
26686;SDS011;14298;50.900;4.648;2023-03-19T10:43:39;2.97;;;0.80;;
26686;SDS011;14298;50.900;4.648;2023-03-19T10:46:14;1.50;;;1.03;;
26686;SDS011;14298;50.900;4.648;2023-03-19T10:48:44;0.53;;;0.40;;
26686;SDS011;14298;50.900;4.648;2023-03-19T10:51:20;1.60;;;0.63;;
26686;SDS011;14298;50.900;4.648;2023-03-19T10:53:45;0.50;;;0.50;;
26686;SDS011;14298;50.900;4.648;2023-03-19T10:56:18;0.50;;;0.50;;
26686;SDS011;14298;50.900;4.648;2023-03-19T10:58:58;0.73;;;0.73;;
26686;SDS011;14298;50.900;4.648;2023-03-19T11:01:35;0.80;;;0.60;;
26686;SDS011;14298;50.900;4.648;2023-03-19T11:04:19;0.93;;;0.50;;
26686;SDS011;14298;50.900;4.648;2023-03-19T11:06:50;5.33;;;0.90;;
26686;SDS011;14298;50.900;4.648;2023-03-19T11:12:07;1.80;;;1.13;;
26686;SDS011;14298;50.900;4.648;2023-03-19T11:14:59;1.67;;;1.13;;
26686;SDS011;14298;50.900;4.648;2023-03-19T11:19:56;2.03;;;1.00;;
26686;SDS011;14298;50.900;4.648;2023-03-19T11:22:30;3.20;;;1.40;;
26686;SDS011;14298;50.900;4.648;2023-03-19T11:25:13;7.67;;;1.00;;
26686;SDS011;14298;50.900;4.648;2023-03-19T11:27:33;0.97;;;0.87;;
26686;SDS011;14298;50.900;4.648;2023-03-19T11:30:03;0.50;;;0.50;;
26686;SDS011;14298;50.900;4.648;2023-03-19T11:35:35;1.80;;;1.00;;
26686;SDS011;14298;50.900;4.648;2023-03-19T11:38:01;0.83;;;0.83;;
26686;SDS011;14298;50.900;4.648;2023-03-19T11:40:41;2.97;;;1.43;;
26686;SDS011;14298;50.900;4.648;2023-03-19T11:43:24;3.17;;;0.73;;
26686;SDS011;14298;50.900;4.648;2023-03-19T11:51:56;0.80;;;0.70;;
26686;SDS011;14298;50.900;4.648;2023-03-19T11:57:22;5.00;;;1.17;;
26686;SDS011;14298;50.900;4.648;2023-03-19T12:02:40;2.23;;;1.10;;
26686;SDS011;14298;50.900;4.648;2023-03-19T12:05:22;0.50;;;0.50;;
26686;SDS011;14298;50.900;4.648;2023-03-19T12:19:12;2.53;;;2.33;;
26686;SDS011;14298;50.900;4.648;2023-03-19T12:24:38;2.33;;;2.07;;
26686;SDS011;14298;50.900;4.648;2023-03-19T12:27:18;3.70;;;2.43;;
26686;SDS011;14298;50.900;4.648;2023-03-19T12:29:59;2.40;;;2.20;;
26686;SDS011;14298;50.900;4.648;2023-03-19T12:32:36;3.10;;;2.33;;
26686;SDS011;14298;50.900;4.648;2023-03-19T12:35:08;2.37;;;2.13;;
26686;SDS011;14298;50.900;4.648;2023-03-19T12:37:43;3.37;;;2.00;;
26686;SDS011;14298;50.900;4.648;2023-03-19T12:40:40;3.43;;;2.70;;
26686;SDS011;14298;50.900;4.648;2023-03-19T12:43:07;7.57;;;3.13;;
26686;SDS011;14298;50.900;4.648;2023-03-19T12:45:51;6.47;;;3.13;;
26686;SDS011;14298;50.900;4.648;2023-03-19T12:48:22;5.97;;;2.50;;
26686;SDS011;14298;50.900;4.648;2023-03-19T12:50:55;6.23;;;2.03;;
26686;SDS011;14298;50.900;4.648;2023-03-19T12:53:41;4.37;;;1.77;;
26686;SDS011;14298;50.900;4.648;2023-03-19T12:56:24;5.10;;;2.13;;
26686;SDS011;14298;50.900;4.648;2023-03-19T13:01:51;3.43;;;1.87;;
26686;SDS011;14298;50.900;4.648;2023-03-19T13:04:26;2.90;;;2.20;;
26686;SDS011;14298;50.900;4.648;2023-03-19T13:07:00;1.77;;;1.60;;
26686;SDS011;14298;50.900;4.648;2023-03-19T13:09:33;2.43;;;1.50;;
26686;SDS011;14298;50.900;4.648;2023-03-19T13:12:22;6.50;;;2.53;;
26686;SDS011;14298;50.900;4.648;2023-03-19T13:14:57;4.63;;;3.07;;
26686;SDS011;14298;50.900;4.648;2023-03-19T13:23:12;11.67;;;2.87;;
26686;SDS011;14298;50.900;4.648;2023-03-19T13:25:43;3.77;;;2.13;;
26686;SDS011;14298;50.900;4.648;2023-03-19T13:28:19;4.13;;;2.43;;
26686;SDS011;14298;50.900;4.648;2023-03-19T13:31:02;3.67;;;2.63;;
26686;SDS011;14298;50.900;4.648;2023-03-19T13:33:33;4.73;;;2.50;;
26686;SDS011;14298;50.900;4.648;2023-03-19T13:36:04;2.70;;;2.43;;
26686;SDS011;14298;50.900;4.648;2023-03-19T13:38:38;4.83;;;2.03;;
26686;SDS011;14298;50.900;4.648;2023-03-19T13:44:23;2.63;;;1.50;;
26686;SDS011;14298;50.900;4.648;2023-03-19T14:03:27;3.40;;;2.27;;
26686;SDS011;14298;50.900;4.648;2023-03-19T14:06:00;0.83;;;0.83;;
26686;SDS011;14298;50.900;4.648;2023-03-19T14:08:32;2.50;;;2.30;;
26686;SDS011;14298;50.900;4.648;2023-03-19T14:11:20;3.00;;;2.37;;
26686;SDS011;14298;50.900;4.648;2023-03-19T14:13:46;5.40;;;2.33;;
26686;SDS011;14298;50.900;4.648;2023-03-19T14:18:46;1.87;;;1.70;;
26686;SDS011;14298;50.900;4.648;2023-03-19T14:21:16;6.27;;;2.80;;
26686;SDS011;14298;50.900;4.648;2023-03-19T14:24:26;2.97;;;2.63;;
26686;SDS011;14298;50.900;4.648;2023-03-19T14:26:55;5.77;;;2.70;;
26686;SDS011;14298;50.900;4.648;2023-03-19T14:29:29;2.10;;;1.90;;
26686;SDS011;14298;50.900;4.648;2023-03-19T14:31:59;2.30;;;2.10;;
26686;SDS011;14298;50.900;4.648;2023-03-19T14:34:49;6.10;;;2.63;;
26686;SDS011;14298;50.900;4.648;2023-03-19T14:40:26;1.97;;;1.80;;
26686;SDS011;14298;50.900;4.648;2023-03-19T14:43:11;1.77;;;1.50;;
26686;SDS011;14298;50.900;4.648;2023-03-19T14:46:00;3.47;;;2.30;;
26686;SDS011;14298;50.900;4.648;2023-03-19T14:56:54;1.30;;;1.20;;
26686;SDS011;14298;50.900;4.648;2023-03-19T14:59:23;1.40;;;1.30;;
26686;SDS011;14298;50.900;4.648;2023-03-19T15:01:52;2.80;;;1.67;;
26686;SDS011;14298;50.900;4.648;2023-03-19T15:04:21;7.83;;;2.20;;
26686;SDS011;14298;50.900;4.648;2023-03-19T15:06:53;2.07;;;1.87;;
26686;SDS011;14298;50.900;4.648;2023-03-19T15:09:25;1.60;;;1.50;;
26686;SDS011;14298;50.900;4.648;2023-03-19T15:17:34;2.60;;;2.07;;
26686;SDS011;14298;50.900;4.648;2023-03-19T15:20:07;2.10;;;1.43;;
26686;SDS011;14298;50.900;4.648;2023-03-19T15:22:43;1.90;;;1.80;;
26686;SDS011;14298;50.900;4.648;2023-03-19T15:25:13;2.93;;;2.20;;
26686;SDS011;14298;50.900;4.648;2023-03-19T15:27:42;3.13;;;2.17;;
26686;SDS011;14298;50.900;4.648;2023-03-19T15:30:20;2.40;;;1.50;;
26686;SDS011;14298;50.900;4.648;2023-03-19T15:32:48;1.67;;;1.57;;
26686;SDS011;14298;50.900;4.648;2023-03-19T15:35:16;1.63;;;1.27;;
26686;SDS011;14298;50.900;4.648;2023-03-19T15:37:48;1.20;;;1.10;;
26686;SDS011;14298;50.900;4.648;2023-03-19T15:40:18;1.20;;;1.10;;
26686;SDS011;14298;50.900;4.648;2023-03-19T15:42:49;1.37;;;1.13;;
26686;SDS011;14298;50.900;4.648;2023-03-19T15:45:20;0.83;;;0.83;;
26686;SDS011;14298;50.900;4.648;2023-03-19T15:47:56;4.60;;;1.37;;
26686;SDS011;14298;50.900;4.648;2023-03-19T15:50:32;0.83;;;0.80;;
26686;SDS011;14298;50.900;4.648;2023-03-19T15:55:55;4.20;;;1.37;;
26686;SDS011;14298;50.900;4.648;2023-03-19T15:58:24;1.83;;;0.93;;
26686;SDS011;14298;50.900;4.648;2023-03-19T16:01:01;1.27;;;1.17;;
26686;SDS011;14298;50.900;4.648;2023-03-19T16:03:35;1.33;;;1.27;;
26686;SDS011;14298;50.900;4.648;2023-03-19T16:06:05;1.20;;;1.10;;
26686;SDS011;14298;50.900;4.648;2023-03-19T16:08:36;1.30;;;1.20;;
26686;SDS011;14298;50.900;4.648;2023-03-19T16:11:14;1.07;;;1.07;;
26686;SDS011;14298;50.900;4.648;2023-03-19T16:13:51;0.93;;;0.83;;
26686;SDS011;14298;50.900;4.648;2023-03-19T16:16:16;1.10;;;1.00;;
26686;SDS011;14298;50.900;4.648;2023-03-19T16:18:50;2.70;;;1.33;;
26686;SDS011;14298;50.900;4.648;2023-03-19T16:21:21;0.83;;;0.83;;
26686;SDS011;14298;50.900;4.648;2023-03-19T16:23:53;1.67;;;1.33;;
26686;SDS011;14298;50.900;4.648;2023-03-19T16:26:34;1.00;;;0.93;;
26686;SDS011;14298;50.900;4.648;2023-03-19T16:29:23;0.93;;;0.93;;
26686;SDS011;14298;50.900;4.648;2023-03-19T16:31:44;2.13;;;1.20;;
26686;SDS011;14298;50.900;4.648;2023-03-19T16:36:58;1.53;;;1.43;;
26686;SDS011;14298;50.900;4.648;2023-03-19T16:44:44;1.60;;;1.50;;
26686;SDS011;14298;50.900;4.648;2023-03-19T16:47:14;2.23;;;1.77;;
26686;SDS011;14298;50.900;4.648;2023-03-19T16:49:42;2.97;;;1.40;;
26686;SDS011;14298;50.900;4.648;2023-03-19T16:52:15;3.33;;;2.00;;
26686;SDS011;14298;50.900;4.648;2023-03-19T16:54:47;2.17;;;1.93;;
26686;SDS011;14298;50.900;4.648;2023-03-19T16:57:15;3.53;;;3.23;;
26686;SDS011;14298;50.900;4.648;2023-03-19T16:59:45;2.73;;;2.43;;
26686;SDS011;14298;50.900;4.648;2023-03-19T17:02:14;2.97;;;2.27;;